Time;durP1;ratioP1;P1;durP2;ratioP2;P2;SDS_P1;SDS_P2;PMS_P1;PMS_P2;Temp;Humidity;BMP_temperature;BMP_pressure;BME280_temperature;BME280_humidity;BME280_pressure;Samples;Min_cycle;Max_cycle;Signal;HPM_P1;HPM_P2
2021/06/02 00:02:11;;;;;;;5.83;5.33;;;14.20;82.90;;;;;;4852941;29;20477;-82
2021/06/02 00:04:44;;;;;;;5.97;5.50;;;14.20;83.30;;;;;;4853366;29;20464;-82
2021/06/02 00:07:11;;;;;;;5.20;4.80;;;14.10;84.10;;;;;;4853187;29;20442;-83
2021/06/02 00:09:38;;;;;;;5.60;5.30;;;14.10;85.10;;;;;;4852457;29;20933;-83
2021/06/02 00:12:08;;;;;;;6.60;6.00;;;14.00;85.70;;;;;;4852648;29;20476;-81
2021/06/02 00:14:35;;;;;;;5.10;4.70;;;14.00;86.00;;;;;;4853708;29;20454;-83
2021/06/02 00:17:03;;;;;;;6.77;6.00;;;13.90;86.40;;;;;;4857292;29;20494;-81
2021/06/02 00:19:30;;;;;;;5.50;5.10;;;13.80;86.80;;;;;;4857022;29;20838;-82
2021/06/02 00:21:58;;;;;;;5.03;4.60;;;13.80;87.30;;;;;;4857218;29;20502;-83
2021/06/02 00:24:25;;;;;;;5.70;5.30;;;13.70;88.00;;;;;;4857349;29;20470;-83
2021/06/02 00:26:53;;;;;;;5.70;5.30;;;13.70;88.60;;;;;;4857100;29;20457;-82
2021/06/02 00:29:21;;;;;;;5.73;5.23;;;13.60;89.10;;;;;;4856766;29;20877;-81
2021/06/02 00:31:48;;;;;;;5.40;5.00;;;13.60;90.10;;;;;;4855637;29;20481;-83
2021/06/02 00:34:18;;;;;;;6.47;4.97;;;13.50;90.30;;;;;;4856567;29;20465;-82
2021/06/02 00:36:45;;;;;;;5.73;5.10;;;13.50;90.70;;;;;;4857399;29;20475;-82
2021/06/02 00:39:12;;;;;;;5.50;4.63;;;13.40;90.80;;;;;;4856301;29;20541;-82
2021/06/02 00:41:40;;;;;;;5.97;5.40;;;13.40;91.20;;;;;;4856876;29;20606;-83
2021/06/02 00:44:07;;;;;;;6.03;5.47;;;13.30;91.40;;;;;;4856690;29;20461;-82
2021/06/02 00:46:36;;;;;;;6.00;5.50;;;13.30;91.70;;;;;;4857288;29;20998;-83
2021/06/02 00:49:04;;;;;;;5.63;5.20;;;13.30;92.00;;;;;;4856290;29;20954;-82
2021/06/02 00:51:32;;;;;;;5.80;5.40;;;13.20;92.00;;;;;;4856495;29;20466;-83
2021/06/02 00:54:00;;;;;;;4.93;4.50;;;13.20;92.40;;;;;;4856320;29;20462;-83
2021/06/02 00:56:31;;;;;;;6.10;5.50;;;13.20;92.40;;;;;;4856013;29;20465;-82
2021/06/02 00:59:00;;;;;;;5.83;5.33;;;13.20;92.90;;;;;;4856653;29;20546;-83
2021/06/02 01:01:27;;;;;;;6.33;5.73;;;13.10;92.90;;;;;;4855401;29;20462;-82
2021/06/02 01:03:57;;;;;;;7.00;6.30;;;13.10;93.00;;;;;;4856331;29;20863;-83
2021/06/02 01:06:26;;;;;;;5.77;5.13;;;13.10;93.20;;;;;;4855912;29;20968;-82
2021/06/02 01:08:57;;;;;;;5.40;5.00;;;13.00;93.40;;;;;;4855958;29;20509;-82
2021/06/02 01:11:25;;;;;;;5.60;5.10;;;13.00;93.80;;;;;;4855313;29;20467;-82
2021/06/02 01:13:51;;;;;;;5.43;4.90;;;13.00;93.90;;;;;;4855057;29;20455;-82
2021/06/02 01:16:18;;;;;;;6.70;4.80;;;12.90;93.70;;;;;;4856352;29;20464;-83
2021/06/02 01:18:45;;;;;;;5.23;4.83;;;12.90;93.80;;;;;;4855338;29;21043;-82
2021/06/02 01:21:20;;;;;;;6.03;5.53;;;12.90;93.90;;;;;;4854991;29;20510;-83
2021/06/02 01:23:48;;;;;;;5.20;4.73;;;12.80;93.80;;;;;;4965716;23;20510;-88
2021/06/02 01:26:15;;;;;;;5.10;4.80;;;12.80;94.00;;;;;;4862086;29;20521;-87
2021/06/02 01:28:41;;;;;;;5.07;4.67;;;12.80;94.20;;;;;;4862420;29;20457;-87
2021/06/02 01:31:09;;;;;;;5.53;5.13;;;12.70;94.30;;;;;;4862585;29;20468;-87
2021/06/02 01:33:59;;;;;;;7.57;6.97;;;12.70;94.50;;;;;;4846862;29;20473;-87
2021/06/02 01:36:55;;;;;;;5.03;4.63;;;12.60;94.90;;;;;;4844781;29;20469;-85
2021/06/02 01:39:59;;;;;;;5.57;5.10;;;12.60;95.50;;;;;;4846853;29;20494;-85
2021/06/02 01:42:37;;;;;;;5.70;5.30;;;12.50;95.70;;;;;;4847024;29;20480;-85
2021/06/02 01:45:42;;;;;;;6.60;6.00;;;12.50;95.90;;;;;;4846816;29;20540;-85
2021/06/02 01:48:42;;;;;;;6.80;6.07;;;12.50;96.20;;;;;;4846756;29;20461;-85
2021/06/02 01:52:05;;;;;;;8.70;6.00;;;12.40;96.40;;;;;;4846095;29;20493;-85
2021/06/02 01:55:06;;;;;;;6.80;5.90;;;12.40;96.60;;;;;;4845862;29;20461;-85
2021/06/02 01:58:06;;;;;;;6.50;5.20;;;12.30;96.70;;;;;;4845373;29;20458;-85
2021/06/02 02:00:45;;;;;;;5.93;5.43;;;12.30;96.90;;;;;;4845640;29;21012;-85
2021/06/02 02:03:54;;;;;;;5.47;4.97;;;12.20;97.60;;;;;;4845942;29;20999;-84
2021/06/02 02:06:55;;;;;;;6.37;5.33;;;12.20;97.50;;;;;;4845820;29;20818;-85
2021/06/02 02:09:34;;;;;;;5.20;4.80;;;12.20;98.00;;;;;;4845820;29;20976;-85
2021/06/02 02:12:08;;;;;;;6.10;5.60;;;12.10;97.90;;;;;;4845325;29;20849;-85
2021/06/02 02:15:04;;;;;;;5.50;5.10;;;12.10;98.10;;;;;;4845462;29;20474;-84
2021/06/02 02:18:16;;;;;;;5.17;4.87;;;12.10;98.20;;;;;;4844599;29;20472;-85
2021/06/02 02:20:47;;;;;;;5.60;5.10;;;12.00;98.10;;;;;;4827961;29;20454;-85
2021/06/02 02:23:23;;;;;;;5.17;4.87;;;12.00;98.00;;;;;;4844902;29;20504;-84
2021/06/02 02:25:56;;;;;;;5.73;5.27;;;12.00;97.90;;;;;;4845579;29;20461;-85
2021/06/02 02:28:40;;;;;;;5.73;5.10;;;11.90;97.80;;;;;;4845384;29;20458;-85
2021/06/02 02:31:23;;;;;;;6.03;5.17;;;11.90;97.90;;;;;;4845783;29;20874;-85
2021/06/02 02:33:57;;;;;;;5.00;4.70;;;11.80;98.10;;;;;;4845205;29;20485;-85
2021/06/02 02:36:31;;;;;;;5.17;4.77;;;11.80;98.20;;;;;;4845265;29;20513;-84
2021/06/02 02:39:01;;;;;;;6.20;5.80;;;11.80;98.30;;;;;;4843407;29;20493;-85
2021/06/02 02:41:49;;;;;;;5.70;5.20;;;11.80;98.20;;;;;;4844627;29;20516;-85
2021/06/02 02:44:32;;;;;;;6.67;6.17;;;11.80;98.40;;;;;;4845163;29;20459;-85
2021/06/02 02:47:09;;;;;;;6.00;5.20;;;11.70;98.30;;;;;;4845526;29;20435;-85
2021/06/02 02:49:45;;;;;;;5.30;4.83;;;11.70;98.50;;;;;;4845994;29;20464;-85
2021/06/02 02:52:19;;;;;;;5.87;5.37;;;11.70;98.70;;;;;;4846419;29;20485;-86
2021/06/02 02:54:53;;;;;;;4.93;4.63;;;11.60;98.70;;;;;;4847028;29;20466;-85
2021/06/02 02:57:32;;;;;;;5.60;5.20;;;11.60;98.90;;;;;;4849970;29;20488;-85
2021/06/02 03:00:05;;;;;;;5.30;4.80;;;11.60;99.10;;;;;;4852461;29;20504;-85
2021/06/02 03:02:42;;;;;;;9.33;5.40;;;11.60;99.20;;;;;;4849746;29;20496;-85
2021/06/02 03:05:12;;;;;;;5.57;5.17;;;11.60;99.40;;;;;;4845432;29;20476;-85
2021/06/02 03:07:44;;;;;;;5.80;5.30;;;11.50;99.10;;;;;;4845574;29;20458;-85
2021/06/02 03:10:14;;;;;;;6.00;5.50;;;11.50;99.00;;;;;;4846403;29;20464;-85
2021/06/02 03:12:51;;;;;;;5.63;5.23;;;11.50;98.90;;;;;;4845819;29;21072;-84
2021/06/02 03:15:35;;;;;;;5.30;5.00;;;11.50;98.80;;;;;;4845778;29;20802;-85
2021/06/02 03:18:15;;;;;;;7.00;6.40;;;11.40;98.80;;;;;;4845483;29;20525;-85
2021/06/02 03:20:47;;;;;;;5.47;5.07;;;11.40;98.90;;;;;;4845259;29;20472;-85
2021/06/02 03:23:28;;;;;;;4.60;4.30;;;11.40;99.20;;;;;;4844127;29;20494;-85
2021/06/02 03:26:03;;;;;;;5.83;5.33;;;11.30;99.40;;;;;;4844736;29;20460;-85
2021/06/02 03:28:47;;;;;;;5.33;4.83;;;11.30;99.60;;;;;;4844340;29;20468;-85
2021/06/02 03:31:22;;;;;;;5.70;5.30;;;11.30;99.90;;;;;;4844466;29;20468;-84
2021/06/02 03:34:09;;;;;;;5.77;5.37;;;11.30;99.90;;;;;;4844496;29;20861;-85
2021/06/02 03:36:43;;;;;;;5.50;5.00;;;11.30;99.90;;;;;;4844444;29;20460;-85
2021/06/02 03:39:16;;;;;;;4.87;4.57;;;11.30;99.90;;;;;;4844710;29;20497;-84
2021/06/02 03:41:57;;;;;;;5.50;5.10;;;11.20;99.90;;;;;;4844224;29;20477;-85
2021/06/02 03:44:49;;;;;;;5.13;4.73;;;11.30;99.90;;;;;;4844461;29;20886;-85
2021/06/02 03:47:25;;;;;;;11.63;5.37;;;11.20;99.90;;;;;;4844447;29;20468;-85
2021/06/02 03:50:04;;;;;;;5.63;5.23;;;11.20;99.90;;;;;;4843882;29;20458;-84
2021/06/02 03:52:46;;;;;;;5.43;5.03;;;11.30;99.90;;;;;;4844436;29;20485;-85
2021/06/02 03:55:19;;;;;;;5.37;4.87;;;11.30;99.90;;;;;;4844315;29;20486;-85
2021/06/02 03:57:52;;;;;;;7.10;5.73;;;11.30;99.90;;;;;;4844427;29;20480;-85
2021/06/02 04:00:20;;;;;;;5.07;4.67;;;11.30;99.90;;;;;;4843883;29;20561;-85
2021/06/02 04:02:56;;;;;;;5.53;5.17;;;11.30;99.90;;;;;;4844195;29;20513;-85
2021/06/02 04:05:39;;;;;;;5.27;4.87;;;11.30;99.90;;;;;;4844376;29;20496;-85
2021/06/02 04:08:15;;;;;;;4.73;4.33;;;11.30;99.90;;;;;;4843890;29;20532;-85
2021/06/02 04:10:46;;;;;;;5.30;4.90;;;11.30;99.90;;;;;;4844174;29;20465;-83
2021/06/02 04:13:35;;;;;;;5.33;4.97;;;11.30;99.90;;;;;;4843928;29;20496;-85
2021/06/02 04:16:09;;;;;;;5.50;5.10;;;11.30;99.90;;;;;;4843969;29;20436;-85
2021/06/02 04:18:36;;;;;;;7.17;6.47;;;11.40;99.90;;;;;;4844097;29;20505;-84
2021/06/02 04:21:22;;;;;;;5.27;4.87;;;11.30;99.90;;;;;;4843884;29;20522;-85
2021/06/02 04:23:49;;;;;;;4.67;4.27;;;11.40;99.90;;;;;;4843439;29;21080;-85
2021/06/02 04:26:15;;;;;;;4.80;4.37;;;11.40;99.90;;;;;;4844126;29;20479;-84
2021/06/02 04:28:42;;;;;;;6.57;4.90;;;11.40;99.90;;;;;;4844248;29;20464;-83
2021/06/02 04:31:11;;;;;;;6.47;5.87;;;11.40;99.90;;;;;;4844310;29;20469;-85
2021/06/02 04:33:40;;;;;;;5.17;4.77;;;11.40;99.90;;;;;;4843766;29;20484;-85
2021/06/02 04:36:10;;;;;;;5.80;5.20;;;11.40;99.90;;;;;;4843811;29;20465;-84
2021/06/02 04:38:36;;;;;;;4.63;4.33;;;11.50;99.90;;;;;;4844072;29;21008;-84
2021/06/02 04:41:04;;;;;;;5.07;4.67;;;11.50;99.90;;;;;;4844390;29;20457;-84
2021/06/02 04:43:33;;;;;;;6.73;6.23;;;11.50;99.90;;;;;;4844175;29;20477;-84
2021/06/02 04:46:01;;;;;;;6.53;5.40;;;11.50;99.90;;;;;;4844472;29;20440;-85
2021/06/02 04:48:28;;;;;;;5.97;5.57;;;11.60;99.90;;;;;;4843990;29;20527;-85
2021/06/02 04:51:34;;;;;;;8.17;7.57;;;11.60;99.90;;;;;;4844597;29;20472;-85
2021/06/02 04:54:42;;;;;;;6.53;6.00;;;11.70;99.90;;;;;;4843985;29;20437;-85
2021/06/02 04:57:42;;;;;;;6.67;6.17;;;11.70;99.90;;;;;;4844042;29;20956;-84
2021/06/02 05:00:42;;;;;;;6.00;5.50;;;11.80;99.90;;;;;;4843981;29;20505;-84
2021/06/02 05:03:51;;;;;;;6.87;6.20;;;11.90;99.90;;;;;;4846138;29;20549;-85
2021/06/02 05:07:08;;;;;;;7.00;6.07;;;12.00;99.90;;;;;;4846643;29;20497;-85
2021/06/02 05:10:14;;;;;;;8.10;5.37;;;12.00;99.60;;;;;;4846464;29;20458;-87
2021/06/02 05:13:26;;;;;;;5.27;4.77;;;12.20;98.80;;;;;;4844118;29;20485;-87
2021/06/02 05:16:25;;;;;;;5.13;4.80;;;12.30;98.40;;;;;;4844335;29;20489;-87
2021/06/02 05:19:55;;;;;;;5.10;4.67;;;12.40;97.30;;;;;;4835807;29;20917;-88
2021/06/02 05:22:52;;;;;;;4.03;3.63;;;12.50;96.70;;;;;;4843646;29;20493;-87
2021/06/02 05:26:00;;;;;;;4.40;4.03;;;12.70;96.60;;;;;;4844018;29;20979;-86
2021/06/02 05:29:17;;;;;;;6.67;4.53;;;12.90;96.60;;;;;;4844220;29;20537;-87
2021/06/02 05:32:29;;;;;;;6.80;5.03;;;13.00;96.10;;;;;;4842184;29;20462;-88
2021/06/02 05:35:25;;;;;;;6.20;5.43;;;13.20;95.70;;;;;;4844012;29;20469;-87
2021/06/02 05:38:25;;;;;;;4.23;3.80;;;13.30;94.70;;;;;;4843847;29;20526;-86
2021/06/02 05:41:10;;;;;;;5.57;5.17;;;13.50;94.50;;;;;;4843900;29;20480;-85
2021/06/02 05:44:15;;;;;;;5.00;4.37;;;13.60;93.80;;;;;;4842626;29;20525;-86
2021/06/02 05:47:19;;;;;;;4.70;4.30;;;13.80;93.40;;;;;;4843425;29;20466;-87
2021/06/02 05:50:16;;;;;;;5.30;4.40;;;13.90;93.30;;;;;;4843616;29;20455;-85
2021/06/02 05:53:22;;;;;;;4.43;4.13;;;14.00;93.10;;;;;;4843118;29;20482;-86
2021/06/02 05:56:31;;;;;;;5.43;4.93;;;14.10;93.20;;;;;;4829525;29;20479;-87
2021/06/02 05:59:21;;;;;;;6.90;5.63;;;14.30;93.00;;;;;;4843058;29;20495;-86
2021/06/02 06:01:56;;;;;;;6.73;4.50;;;14.40;92.80;;;;;;4843313;29;20499;-86
2021/06/02 06:05:13;;;;;;;6.20;5.60;;;14.60;92.50;;;;;;4843535;29;20887;-87
2021/06/02 06:08:21;;;;;;;4.33;3.90;;;14.70;92.60;;;;;;4819365;29;20481;-86
2021/06/02 06:11:13;;;;;;;5.07;4.47;;;14.80;92.70;;;;;;4843413;29;20471;-86
2021/06/02 06:14:05;;;;;;;5.60;5.17;;;14.90;92.50;;;;;;4850827;29;20482;-86
2021/06/02 06:17:01;;;;;;;5.00;4.60;;;15.10;92.60;;;;;;4857410;29;21020;-85
2021/06/02 06:20:02;;;;;;;4.53;3.33;;;15.20;91.90;;;;;;4856298;29;20493;-86
2021/06/02 06:22:42;;;;;;;5.43;4.40;;;15.30;91.00;;;;;;4834789;29;20509;-86
2021/06/02 06:25:13;;;;;;;6.47;5.30;;;15.40;91.40;;;;;;4860421;29;20989;-85
2021/06/02 06:27:44;;;;;;;4.90;4.50;;;15.50;91.20;;;;;;4860337;29;20457;-85
2021/06/02 06:30:18;;;;;;;4.77;4.37;;;15.60;91.20;;;;;;4860175;29;20477;-85
2021/06/02 06:32:47;;;;;;;4.33;3.47;;;15.80;91.00;;;;;;4860068;29;20533;-86
2021/06/02 06:35:16;;;;;;;6.20;4.10;;;15.90;90.70;;;;;;4856027;29;20817;-85
2021/06/02 06:37:46;;;;;;;5.23;4.30;;;16.00;90.40;;;;;;4860185;29;20455;-86
2021/06/02 06:40:16;;;;;;;3.90;3.53;;;16.10;90.50;;;;;;4824395;29;20625;-89
2021/06/02 06:42:44;;;;;;;5.83;5.40;;;16.30;90.20;;;;;;4824124;29;20539;-88
2021/06/02 06:45:20;;;;;;;4.10;3.70;;;16.40;88.90;;;;;;4824636;29;20474;-89
2021/06/02 06:47:48;;;;;;;9.60;3.90;;;16.40;88.20;;;;;;4825913;29;20533;-89
2021/06/02 06:50:16;;;;;;;4.53;3.93;;;16.60;88.10;;;;;;4824768;29;20524;-87
2021/06/02 06:52:48;;;;;;;4.70;4.20;;;16.70;87.80;;;;;;4824448;29;20496;-86
2021/06/02 06:55:15;;;;;;;5.50;4.47;;;16.80;88.10;;;;;;4824335;29;21019;-85
2021/06/02 06:57:43;;;;;;;6.23;4.97;;;16.90;86.90;;;;;;4831256;29;20476;-83
2021/06/02 07:00:12;;;;;;;5.53;4.60;;;17.00;87.80;;;;;;4830723;29;20453;-83
2021/06/02 07:02:42;;;;;;;8.33;7.73;;;17.10;87.80;;;;;;4830303;29;20492;-81
2021/06/02 07:05:09;;;;;;;6.40;4.87;;;17.30;86.40;;;;;;4830712;29;20489;-82
2021/06/02 07:07:36;;;;;;;7.77;4.37;;;17.40;86.60;;;;;;4831089;29;20462;-82
2021/06/02 07:10:04;;;;;;;6.50;4.07;;;17.50;86.20;;;;;;4831267;29;20501;-81
2021/06/02 07:12:32;;;;;;;6.23;3.60;;;17.60;85.10;;;;;;4835314;29;20576;-82
2021/06/02 07:15:01;;;;;;;5.33;3.90;;;17.70;84.90;;;;;;4835672;29;20466;-81
2021/06/02 07:17:30;;;;;;;7.37;3.83;;;17.70;82.80;;;;;;4834402;29;20466;-82
2021/06/02 07:20:00;;;;;;;4.07;3.67;;;17.80;84.00;;;;;;4834897;29;20455;-82
2021/06/02 16:41:39;;;;;;;4.43;2.73;;;45.30;18.90;;;;;;5670794;23;21029;-78
2021/06/02 17:35:45;;;;;;;2.40;2.30;;;39.80;21.10;;;;;;4884086;29;20405;-85
2021/06/02 17:38:11;;;;;;;5.20;2.73;;;38.90;21.80;;;;;;4879354;29;20465;-86
2021/06/02 17:40:39;;;;;;;2.57;2.47;;;38.30;22.40;;;;;;4865645;29;20556;-86
2021/06/02 17:43:05;;;;;;;2.80;2.70;;;37.80;22.60;;;;;;4863458;29;20588;-85
2021/06/02 17:45:32;;;;;;;2.50;2.30;;;37.30;22.90;;;;;;4864337;29;20476;-86
2021/06/02 17:48:01;;;;;;;2.77;2.57;;;37.10;23.00;;;;;;4868839;29;20963;-86
2021/06/02 17:50:28;;;;;;;2.43;2.23;;;36.80;23.50;;;;;;4867285;29;20457;-84
2021/06/02 17:53:00;;;;;;;2.50;2.30;;;36.40;24.60;;;;;;4867429;29;20493;-84
2021/06/02 17:55:27;;;;;;;2.40;2.30;;;36.00;24.70;;;;;;4868238;29;20445;-83
2021/06/02 17:57:55;;;;;;;3.60;2.50;;;35.50;25.10;;;;;;4868201;29;20465;-83
2021/06/02 18:00:22;;;;;;;3.30;3.00;;;35.10;25.30;;;;;;4865631;29;20496;-83
2021/06/02 18:02:49;;;;;;;2.50;2.17;;;34.70;25.80;;;;;;4865052;29;20527;-83
2021/06/02 18:05:16;;;;;;;2.80;2.57;;;34.60;25.70;;;;;;4864952;29;20557;-83
2021/06/02 18:07:43;;;;;;;2.77;2.67;;;34.50;25.70;;;;;;4865018;29;20461;-83
2021/06/02 18:10:15;;;;;;;2.60;2.40;;;34.70;25.70;;;;;;4864359;29;20991;-83
2021/06/02 18:12:43;;;;;;;2.40;2.20;;;34.70;25.80;;;;;;4863824;29;20477;-83
2021/06/02 18:15:10;;;;;;;2.80;2.60;;;34.70;25.70;;;;;;4864419;29;21019;-84
2021/06/02 18:17:38;;;;;;;3.23;2.93;;;34.50;26.20;;;;;;4864107;29;20465;-84
2021/06/02 18:20:06;;;;;;;3.17;2.97;;;34.20;26.00;;;;;;4865632;29;20499;-84
2021/06/02 18:22:38;;;;;;;2.53;2.43;;;33.90;26.40;;;;;;4865654;29;20556;-84
2021/06/02 18:25:08;;;;;;;2.70;2.50;;;33.60;26.80;;;;;;4864892;29;20996;-84
2021/06/02 18:27:39;;;;;;;3.07;2.90;;;33.20;26.90;;;;;;4864343;29;20893;-84
2021/06/02 18:30:08;;;;;;;3.43;3.20;;;32.80;27.20;;;;;;4864084;29;20438;-84
2021/06/02 18:32:37;;;;;;;3.10;2.80;;;32.60;27.70;;;;;;4863875;29;20484;-84
2021/06/02 18:35:16;;;;;;;3.27;2.97;;;32.50;28.20;;;;;;4863701;29;20544;-84
2021/06/02 18:37:42;;;;;;;2.80;2.60;;;32.30;28.30;;;;;;4863474;29;20546;-84
2021/06/02 18:40:10;;;;;;;2.40;2.27;;;32.10;29.10;;;;;;4863518;29;20492;-83
2021/06/02 18:42:38;;;;;;;3.43;3.17;;;31.90;28.80;;;;;;4862653;29;20487;-84
2021/06/02 18:45:06;;;;;;;4.33;3.70;;;31.50;28.70;;;;;;4863282;29;20480;-84
2021/06/02 18:47:32;;;;;;;3.07;2.87;;;31.10;28.90;;;;;;4863208;29;20461;-83
2021/06/02 18:49:58;;;;;;;3.13;2.90;;;30.70;29.80;;;;;;4863114;29;20960;-85
2021/06/02 18:52:24;;;;;;;2.70;2.50;;;30.30;30.20;;;;;;4863148;29;20453;-83
2021/06/02 18:54:51;;;;;;;3.07;2.87;;;29.80;30.80;;;;;;4863316;29;20464;-82
2021/06/02 18:57:17;;;;;;;2.80;2.60;;;29.30;32.00;;;;;;4863031;29;20966;-82
2021/06/02 18:59:47;;;;;;;3.60;3.30;;;28.70;33.00;;;;;;4863193;29;20488;-82
2021/06/02 19:02:19;;;;;;;2.90;2.70;;;28.30;33.70;;;;;;4863246;29;20458;-82
2021/06/02 19:04:45;;;;;;;3.50;3.30;;;27.80;34.50;;;;;;4864670;29;20522;-82
2021/06/02 19:07:19;;;;;;;7.20;3.63;;;27.30;34.90;;;;;;4863754;29;20524;-83
2021/06/02 19:09:48;;;;;;;3.77;3.50;;;27.00;35.50;;;;;;4863140;29;20435;-82
2021/06/02 19:12:14;;;;;;;4.20;2.93;;;26.60;36.40;;;;;;4863008;29;20977;-81
2021/06/02 19:14:48;;;;;;;6.23;4.70;;;26.20;36.30;;;;;;4862925;29;20450;-83
2021/06/02 19:17:16;;;;;;;3.40;3.10;;;25.90;37.20;;;;;;4863132;29;20616;-84
2021/06/02 19:19:43;;;;;;;5.23;4.80;;;25.60;37.50;;;;;;4862800;29;20929;-82
2021/06/02 19:22:09;;;;;;;5.03;4.63;;;25.30;38.00;;;;;;4862024;29;20463;-81
2021/06/02 19:24:38;;;;;;;6.27;4.03;;;25.10;39.10;;;;;;4862541;29;20457;-82
2021/06/02 19:27:09;;;;;;;5.23;4.83;;;24.90;39.20;;;;;;4866488;29;20488;-81
2021/06/02 19:29:37;;;;;;;4.20;3.90;;;24.70;39.50;;;;;;4895708;23;20481;-84
2021/06/02 19:32:05;;;;;;;4.70;4.40;;;24.50;40.00;;;;;;4878548;29;20468;-84
2021/06/02 19:34:34;;;;;;;4.70;4.30;;;24.30;40.30;;;;;;4880900;29;20465;-85
2021/06/02 19:37:02;;;;;;;4.90;4.40;;;24.20;40.60;;;;;;4880358;29;20865;-84
2021/06/02 19:39:28;;;;;;;4.43;4.03;;;23.90;40.80;;;;;;4880300;29;20452;-82
2021/06/02 19:41:55;;;;;;;8.20;5.67;;;23.80;41.60;;;;;;4884412;29;20463;-83
2021/06/02 19:44:21;;;;;;;6.00;5.47;;;23.60;41.90;;;;;;4887922;29;20456;-83
2021/06/02 19:46:47;;;;;;;6.87;6.27;;;23.50;42.30;;;;;;4886223;29;20468;-83
2021/06/02 19:49:13;;;;;;;6.83;6.30;;;23.30;44.00;;;;;;4885906;29;20833;-83
2021/06/02 19:51:41;;;;;;;8.13;5.47;;;23.30;44.30;;;;;;4884500;29;20843;-83
2021/06/02 19:54:08;;;;;;;5.50;5.00;;;23.10;44.20;;;;;;4885925;29;20463;-83
2021/06/02 19:56:35;;;;;;;7.07;6.50;;;23.00;44.70;;;;;;4886765;29;20512;-83
2021/06/02 19:59:01;;;;;;;7.40;6.70;;;22.90;44.70;;;;;;4887236;29;20501;-83
2021/06/02 20:01:28;;;;;;;5.63;5.23;;;22.70;45.10;;;;;;4885920;29;20523;-82
2021/06/02 20:03:54;;;;;;;6.10;5.53;;;22.60;45.40;;;;;;4886393;29;20461;-83
2021/06/02 20:06:20;;;;;;;6.20;5.60;;;22.50;45.70;;;;;;4885453;29;20503;-83
2021/06/02 20:08:48;;;;;;;6.63;5.93;;;22.40;46.10;;;;;;4885503;29;20866;-83
2021/06/02 20:11:14;;;;;;;6.70;6.00;;;22.30;46.60;;;;;;4885381;29;20499;-83
2021/06/02 20:13:40;;;;;;;6.87;6.27;;;22.30;47.10;;;;;;4885748;29;20461;-83
2021/06/02 20:16:07;;;;;;;6.10;5.50;;;22.30;47.30;;;;;;4885333;29;20456;-83
2021/06/02 20:18:33;;;;;;;5.00;4.57;;;22.20;47.60;;;;;;4885170;29;20456;-83
2021/06/02 20:20:59;;;;;;;6.67;6.17;;;22.20;47.50;;;;;;4884935;29;20475;-83
2021/06/02 20:23:26;;;;;;;7.43;6.83;;;22.10;47.90;;;;;;4884564;29;20834;-83
2021/06/02 20:25:54;;;;;;;8.03;7.23;;;22.10;48.40;;;;;;4885031;29;20460;-83
2021/06/02 20:28:21;;;;;;;8.80;7.23;;;22.10;49.10;;;;;;4884999;29;20463;-82
2021/06/02 20:33:32;;;;;;;7.70;7.00;;;22.00;49.90;;;;;;4887838;29;20439;-83
2021/06/02 20:35:58;;;;;;;7.70;7.00;;;21.90;49.80;;;;;;4888491;29;20489;-83
2021/06/02 20:38:24;;;;;;;7.70;6.73;;;21.90;50.40;;;;;;4888018;29;20452;-83
2021/06/02 20:40:50;;;;;;;9.33;8.53;;;21.90;50.80;;;;;;4888394;29;20491;-83
2021/06/02 20:43:18;;;;;;;11.60;10.00;;;21.80;51.10;;;;;;4887972;29;20459;-83
2021/06/02 20:45:44;;;;;;;9.20;8.30;;;21.70;51.60;;;;;;4888487;29;20447;-82
2021/06/02 20:48:11;;;;;;;10.27;9.27;;;21.50;52.20;;;;;;4892191;29;20490;-82
2021/06/02 20:50:37;;;;;;;10.80;9.80;;;21.40;52.60;;;;;;4895148;29;20490;-82
2021/06/02 20:53:03;;;;;;;10.00;9.00;;;21.30;52.80;;;;;;4894467;29;20450;-82
2021/06/02 20:55:30;;;;;;;9.93;8.83;;;21.30;53.30;;;;;;4896353;29;20463;-83
2021/06/02 20:57:56;;;;;;;10.40;9.33;;;21.30;53.70;;;;;;4892537;29;20459;-83
2021/06/02 21:00:25;;;;;;;9.97;9.00;;;21.30;53.80;;;;;;4895483;29;20479;-83
2021/06/02 21:02:54;;;;;;;10.23;8.97;;;21.40;54.00;;;;;;4895801;29;20964;-83
2021/06/02 21:05:21;;;;;;;10.10;9.10;;;21.30;54.20;;;;;;4895555;29;20446;-82
2021/06/02 21:07:47;;;;;;;10.57;9.67;;;21.30;54.50;;;;;;4895616;29;20458;-82
2021/06/02 21:10:13;;;;;;;10.93;9.93;;;21.40;54.70;;;;;;4896309;29;20494;-82
2021/06/02 21:12:40;;;;;;;9.30;8.23;;;21.50;54.90;;;;;;4894822;29;20942;-82
2021/06/02 21:15:08;;;;;;;8.17;7.53;;;21.50;54.60;;;;;;4894946;29;20460;-82
2021/06/02 21:17:35;;;;;;;8.33;7.03;;;21.50;54.50;;;;;;4896610;29;20455;-82
2021/06/02 21:20:01;;;;;;;8.60;7.70;;;21.50;54.50;;;;;;4895143;29;20938;-82
2021/06/02 21:22:28;;;;;;;8.47;7.70;;;21.60;54.70;;;;;;4890873;29;20514;-82
2021/06/02 21:24:54;;;;;;;8.23;7.63;;;21.60;54.90;;;;;;4889733;29;20459;-82
2021/06/02 21:27:20;;;;;;;7.30;6.70;;;21.50;55.00;;;;;;4890285;29;20586;-82
2021/06/02 21:29:47;;;;;;;8.47;7.67;;;21.60;56.80;;;;;;4890036;29;20463;-82
2021/06/02 21:32:13;;;;;;;9.40;8.60;;;21.50;56.10;;;;;;4889000;29;20952;-82
2021/06/02 21:34:41;;;;;;;8.57;7.87;;;21.50;56.40;;;;;;4888949;29;20459;-82
2021/06/02 21:37:07;;;;;;;9.00;7.93;;;21.40;56.40;;;;;;4889208;29;20457;-82
2021/06/02 21:39:33;;;;;;;9.50;8.80;;;21.30;57.30;;;;;;4888669;29;20490;-82
2021/06/02 21:42:00;;;;;;;9.27;8.57;;;21.30;56.80;;;;;;4888128;29;20467;-82
2021/06/02 21:44:26;;;;;;;8.80;7.97;;;21.30;56.80;;;;;;4887291;29;20466;-82
2021/06/02 21:46:52;;;;;;;7.87;7.00;;;21.20;56.90;;;;;;4888986;29;20463;-82
2021/06/02 21:49:18;;;;;;;7.87;7.17;;;21.20;56.50;;;;;;4888624;29;20467;-83
2021/06/02 21:51:46;;;;;;;7.57;6.90;;;21.10;55.90;;;;;;4887471;29;20503;-84
2021/06/02 21:54:12;;;;;;;6.50;6.00;;;21.10;55.70;;;;;;4888171;29;20524;-83
2021/06/02 21:56:38;;;;;;;6.33;5.73;;;21.00;55.80;;;;;;4888018;29;20458;-83
2021/06/02 21:59:07;;;;;;;5.67;5.20;;;20.90;55.90;;;;;;4887248;29;20846;-83
2021/06/02 22:01:35;;;;;;;4.80;4.37;;;20.80;56.20;;;;;;4886997;29;20473;-83
2021/06/02 22:04:01;;;;;;;5.10;4.70;;;20.80;56.00;;;;;;4887852;29;20459;-82
2021/06/02 22:06:27;;;;;;;6.57;6.03;;;20.70;55.70;;;;;;4888020;29;20556;-83
2021/06/02 22:08:54;;;;;;;6.50;5.90;;;20.70;55.70;;;;;;4887193;29;20455;-83
2021/06/02 22:11:21;;;;;;;5.90;4.90;;;20.70;55.90;;;;;;4887020;29;20510;-82
2021/06/02 22:13:47;;;;;;;4.97;4.57;;;20.60;56.60;;;;;;4887558;29;20466;-83
2021/06/02 22:16:14;;;;;;;4.80;4.50;;;20.60;55.80;;;;;;4887164;29;20472;-82
2021/06/02 22:18:40;;;;;;;5.57;5.17;;;20.60;55.60;;;;;;4887186;29;20455;-83
2021/06/02 22:21:07;;;;;;;5.27;4.87;;;20.60;55.80;;;;;;4887696;29;20477;-82
2021/06/02 22:23:34;;;;;;;5.10;4.63;;;20.50;55.90;;;;;;4887110;29;20483;-83
2021/06/02 22:26:02;;;;;;;5.37;4.97;;;20.50;55.60;;;;;;4887207;29;20518;-82
2021/06/02 22:28:29;;;;;;;4.83;4.00;;;20.40;56.00;;;;;;4886963;29;20465;-82
2021/06/02 22:30:57;;;;;;;4.80;4.40;;;20.30;56.40;;;;;;4886992;29;21010;-82
2021/06/02 22:33:25;;;;;;;8.93;6.40;;;20.20;57.00;;;;;;4887117;29;20456;-82
2021/06/02 22:35:52;;;;;;;5.60;5.10;;;20.00;57.80;;;;;;4887216;29;20468;-82
2021/06/02 22:38:18;;;;;;;5.53;5.13;;;19.90;58.60;;;;;;4886695;29;20555;-82
2021/06/02 22:40:44;;;;;;;5.60;5.20;;;19.90;58.30;;;;;;4886890;29;20507;-82
2021/06/02 22:43:12;;;;;;;6.10;5.60;;;19.90;58.50;;;;;;4886107;29;20526;-83
2021/06/02 22:45:39;;;;;;;6.20;5.60;;;19.80;58.80;;;;;;4887039;29;20457;-82
2021/06/02 22:48:07;;;;;;;4.90;4.50;;;19.80;59.60;;;;;;4886618;29;20557;-82
2021/06/02 22:50:33;;;;;;;4.90;4.60;;;19.70;59.80;;;;;;4886575;29;20524;-83
2021/06/02 22:53:00;;;;;;;4.77;4.33;;;19.70;59.80;;;;;;4887069;29;20986;-82
2021/06/02 22:55:27;;;;;;;4.50;4.20;;;19.70;60.00;;;;;;4885401;29;20549;-82
2021/06/02 22:57:55;;;;;;;5.07;4.77;;;19.70;60.70;;;;;;4886894;29;20986;-82
2021/06/02 23:00:27;;;;;;;4.93;4.63;;;19.60;61.00;;;;;;4886683;29;20475;-82
2021/06/02 23:02:54;;;;;;;5.57;5.07;;;19.60;61.00;;;;;;4886077;29;20465;-83
2021/06/02 23:05:20;;;;;;;7.87;5.70;;;19.50;61.10;;;;;;4886833;29;20456;-82
2021/06/02 23:07:46;;;;;;;5.40;5.10;;;19.50;61.90;;;;;;4885989;29;20469;-82
2021/06/02 23:10:13;;;;;;;5.60;5.10;;;19.50;62.50;;;;;;4885737;29;20496;-83
2021/06/02 23:12:39;;;;;;;5.00;4.70;;;19.30;63.20;;;;;;4885861;29;20449;-82
2021/06/02 23:15:08;;;;;;;5.20;4.80;;;19.30;63.80;;;;;;4885433;29;20473;-82
2021/06/02 23:17:46;;;;;;;4.83;4.53;;;19.20;65.20;;;;;;4885527;29;20464;-82
2021/06/02 23:20:15;;;;;;;5.23;4.83;;;19.20;64.80;;;;;;4886029;29;20476;-82
2021/06/02 23:22:41;;;;;;;5.20;4.80;;;19.10;65.10;;;;;;4886216;29;20463;-82
2021/06/02 23:25:09;;;;;;;5.17;4.77;;;19.10;65.40;;;;;;4887097;29;20460;-82
2021/06/02 23:27:35;;;;;;;5.50;5.10;;;19.10;66.10;;;;;;4886280;29;20474;-82
2021/06/02 23:30:01;;;;;;;5.63;5.10;;;19.10;66.90;;;;;;4885910;29;20484;-82
2021/06/02 23:32:27;;;;;;;6.90;6.30;;;19.10;67.50;;;;;;4886173;29;20473;-82
2021/06/02 23:34:55;;;;;;;4.50;4.20;;;19.00;67.60;;;;;;4886204;29;20453;-82